aviador You're here:

WAAA Decoded Metar

UJUNG PANDANG in INDONESIA
Report Time2018-02-17 23:30:00
UTC Time2018-02-17 23:34:58
Flight Rules vfr VFR
Wind070° at 03 kt
W.Decomp.*RWY 03: 2.4 kt HW 1.8 kt RCW
RWY 13: 1.4 kt HW 2.6 kt LCW
W.Rank070° ranks 5
Current wind is below 070° avg. (3.7)
Visibility9999 m
Phenomena:N/A
Clouds:Few 019 Hf
Expected CloudBase > 1,200 ft AGL from Temp-Dew spread
CeilingNone
Temp26°C (ISA +11)
Dew Point23°C (84% RH)
QNH1010 hPa
Density Alt1,798 ft
Elevation46 ft
Report Wrong Elevation
Raw Report
METAR WAAA 172330Z 07003KT 9999 FEW019 26/23 Q1010 NOSIG=

Extra information for WAAA:More info

Metar Taf Metar & Taf Last 4 Metars F.Rules Stats Wind Profile Meteogram Temp Stats Airport Information Weather charts Add Link Nearby VenuesMetar ALERT Operation Metar Decoded Social comments